Time;durP1;ratioP1;P1;durP2;ratioP2;P2;SDS_P1;SDS_P2;PMS_P1;PMS_P2;Temp;Humidity;BMP_temperature;BMP_pressure;BME280_temperature;BME280_humidity;BME280_pressure;Samples;Min_cycle;Max_cycle;Signal;HPM_P1;HPM_P2
2022/08/07 00:00:34;;;;;;;0.50;0.45;;;;;;;16.37;46.64;100497.94;12214587;19;20011;-82
2022/08/07 00:04:40;;;;;;;3.28;0.60;;;;;;;16.35;46.04;100502.94;12189344;19;20018;-82
2022/08/07 00:08:45;;;;;;;1.10;0.60;;;;;;;16.32;46.64;100497.91;12212417;19;20014;-81
2022/08/07 00:12:48;;;;;;;1.98;0.68;;;;;;;16.29;46.86;100492.91;12216134;19;20002;-82
2022/08/07 00:17:01;;;;;;;1.85;0.70;;;;;;;16.28;46.63;100491.25;12187651;19;20006;-79
2022/08/07 00:21:05;;;;;;;0.95;0.40;;;;;;;16.23;47.17;100488.44;12213453;19;20026;-81
2022/08/07 00:25:27;;;;;;;1.65;0.70;;;;;;;16.16;47.28;100473.94;12190900;19;20940;-80
2022/08/07 00:29:37;;;;;;;3.25;0.70;;;;;;;16.10;47.46;100484.19;12210539;19;20010;-80
2022/08/07 00:33:40;;;;;;;1.25;1.10;;;;;;;16.09;47.36;100487.25;12208352;19;20362;-80
2022/08/07 00:37:42;;;;;;;3.90;0.85;;;;;;;16.07;47.34;100472.78;12188170;19;20014;-80
2022/08/07 00:41:53;;;;;;;1.75;0.80;;;;;;;16.04;47.55;100473.34;12208336;19;20010;-78
2022/08/07 00:46:05;;;;;;;1.02;0.70;;;;;;;16.00;47.63;100466.63;12185874;19;20002;-79
2022/08/07 00:50:08;;;;;;;1.23;0.70;;;;;;;15.96;48.05;100477.44;12214534;19;20417;-80
2022/08/07 00:54:31;;;;;;;1.10;0.73;;;;;;;15.93;47.92;100473.25;12208152;19;20016;-78
2022/08/07 00:58:33;;;;;;;;;;;;;;;15.87;47.99;100466.00;12188754;19;20010;-80
2022/08/07 01:02:34;;;;;;;0.85;0.50;;;;;;;15.81;48.28;100464.31;12210843;19;20334;-81
2022/08/07 01:06:40;;;;;;;1.08;0.57;;;;;;;15.78;47.87;100464.00;12209216;19;20015;-79
2022/08/07 01:10:43;;;;;;;0.77;0.50;;;;;;;15.74;48.16;100460.09;12184223;19;20078;-80
2022/08/07 01:14:57;;;;;;;4.40;0.90;;;;;;;15.69;48.29;100460.91;12206564;19;20010;-79
2022/08/07 01:19:04;;;;;;;3.67;0.65;;;;;;;15.68;48.58;100460.06;12187140;19;20021;-80
2022/08/07 01:23:24;;;;;;;0.85;0.55;;;;;;;15.63;48.78;100459.16;12206515;19;20020;-80
2022/08/07 01:27:39;;;;;;;0.52;0.43;;;;;;;15.59;48.80;100458.03;12204902;19;20461;-78
2022/08/07 01:31:53;;;;;;;0.93;0.65;;;;;;;15.54;48.95;100460.75;12182215;19;20023;-79
2022/08/07 01:35:59;;;;;;;0.95;0.50;;;;;;;15.48;49.32;100462.66;12200948;19;20017;-78
2022/08/07 01:40:11;;;;;;;1.58;0.70;;;;;;;15.41;49.25;100460.13;12182866;19;20011;-80
2022/08/07 01:44:27;;;;;;;2.40;0.60;;;;;;;15.36;49.57;100464.78;12198357;19;20006;-81
2022/08/07 01:48:31;;;;;;;2.13;0.77;;;;;;;15.30;49.82;100465.84;12201908;19;20014;-79
2022/08/07 01:52:37;;;;;;;0.65;0.55;;;;;;;15.26;49.90;100462.78;12182649;19;20334;-78
2022/08/07 01:56:55;;;;;;;1.38;0.57;;;;;;;15.20;50.09;100449.94;12199772;19;20392;-78
2022/08/07 02:01:02;;;;;;;0.73;0.60;;;;;;;15.19;50.23;100459.38;12183072;19;20015;-79
2022/08/07 02:05:32;;;;;;;4.78;0.60;;;;;;;15.17;50.51;100444.91;12201664;19;20002;-79
2022/08/07 02:09:53;;;;;;;2.80;0.68;;;;;;;15.16;50.03;100446.84;12202996;19;20007;-79
2022/08/07 02:14:02;;;;;;;2.67;0.88;;;;;;;15.18;50.12;100450.22;12182726;19;20035;-79
2022/08/07 02:18:11;;;;;;;2.33;1.15;;;;;;;15.15;50.21;100445.19;12205523;19;20011;-78
2022/08/07 02:22:18;;;;;;;1.73;0.52;;;;;;;15.16;50.18;100435.75;12181192;19;20082;-78
2022/08/07 02:26:22;;;;;;;1.45;0.77;;;;;;;15.19;50.07;100434.38;12203908;19;20066;-81
2022/08/07 02:30:35;;;;;;;2.92;0.70;;;;;;;15.19;50.50;100439.94;12203920;19;20018;-80
2022/08/07 02:34:40;;;;;;;2.42;0.80;;;;;;;15.19;50.45;100437.16;12191171;19;20018;-79
2022/08/07 02:38:55;;;;;;;2.13;1.00;;;;;;;15.17;50.55;100431.91;12214164;19;20384;-79
2022/08/07 02:43:01;;;;;;;1.77;0.60;;;;;;;15.16;50.38;100432.16;12186902;19;20011;-78
2022/08/07 02:47:11;;;;;;;2.65;0.73;;;;;;;15.15;50.35;100430.47;12213226;19;20106;-79
2022/08/07 02:51:31;;;;;;;1.80;0.65;;;;;;;15.13;50.38;100432.69;12212928;19;20040;-80
2022/08/07 02:55:55;;;;;;;1.48;0.88;;;;;;;15.10;50.53;100425.72;12193733;19;20026;-80
2022/08/07 03:00:07;;;;;;;1.67;0.90;;;;;;;15.09;50.09;100424.06;12212070;19;20014;-78
2022/08/07 03:04:13;;;;;;;0.50;0.47;;;;;;;15.08;50.39;100422.38;12200188;19;20050;-80
2022/08/07 03:08:18;;;;;;;3.03;0.60;;;;;;;15.01;50.97;100427.31;12218911;19;20018;-81
2022/08/07 03:12:29;;;;;;;2.00;0.70;;;;;;;14.99;50.78;100421.16;12228508;19;20283;-78
2022/08/07 03:16:39;;;;;;;0.63;0.60;;;;;;;14.95;51.11;100429.19;12233498;19;20502;-78
2022/08/07 03:20:43;;;;;;;2.60;0.90;;;;;;;14.93;51.52;100420.31;12214573;19;20011;-81
2022/08/07 03:24:45;;;;;;;0.93;0.70;;;;;;;14.87;51.61;100417.72;12216614;19;20524;-80
2022/08/07 03:28:48;;;;;;;2.83;1.02;;;;;;;14.84;51.62;100424.63;12199942;19;20043;-79
2022/08/07 03:32:53;;;;;;;1.10;0.80;;;;;;;14.82;51.73;100419.38;12217990;19;20011;-81
2022/08/07 03:37:02;;;;;;;1.75;0.73;;;;;;;14.80;51.75;100413.25;12188295;19;20015;-81
2022/08/07 03:41:15;;;;;;;3.40;1.35;;;;;;;14.75;51.36;100410.44;12211576;19;20085;-81
2022/08/07 03:45:21;;;;;;;4.20;0.80;;;;;;;14.71;51.47;100412.03;12210975;19;20006;-81
2022/08/07 03:49:38;;;;;;;1.63;0.82;;;;;;;14.70;51.79;100413.16;12188320;19;20074;-77
2022/08/07 03:53:43;;;;;;;3.45;1.05;;;;;;;14.70;52.24;100415.94;12211110;19;20014;-82
2022/08/07 03:58:05;;;;;;;4.43;0.70;;;;;;;14.67;51.95;100419.22;12190583;19;20023;-81
2022/08/07 04:02:27;;;;;;;1.02;0.80;;;;;;;14.67;52.07;100412.84;12207179;19;20006;-77
2022/08/07 04:06:33;;;;;;;1.05;0.60;;;;;;;14.68;52.00;100420.06;12207735;19;20007;-81
2022/08/07 04:10:41;;;;;;;4.82;0.70;;;;;;;14.65;52.06;100424.19;12190337;19;20077;-82
2022/08/07 04:14:57;;;;;;;4.45;0.68;;;;;;;14.63;52.31;100426.38;12208851;19;20002;-80
2022/08/07 04:19:03;;;;;;;1.17;0.70;;;;;;;14.62;52.39;100430.25;12190567;19;20086;-80
2022/08/07 04:23:24;;;;;;;1.65;0.70;;;;;;;14.66;52.20;100430.56;12211707;19;20010;-81
2022/08/07 04:27:44;;;;;;;2.08;0.70;;;;;;;14.67;51.96;100432.25;12209719;19;20013;-79
2022/08/07 04:32:00;;;;;;;0.52;0.50;;;;;;;14.66;52.22;100428.63;12185967;19;20488;-79
2022/08/07 04:36:13;;;;;;;2.28;0.65;;;;;;;14.68;52.16;100445.03;12209265;19;20007;-79
2022/08/07 04:40:16;;;;;;;1.85;0.68;;;;;;;14.69;52.16;100452.25;12184960;19;20011;-80
2022/08/07 04:44:20;;;;;;;1.45;0.80;;;;;;;14.70;52.22;100440.91;12207435;19;20038;-78
2022/08/07 04:48:44;;;;;;;1.17;0.63;;;;;;;14.72;52.23;100444.25;12208351;19;20010;-80
2022/08/07 04:52:58;;;;;;;3.50;0.77;;;;;;;14.73;52.46;100445.91;12187960;19;20435;-81
2022/08/07 04:57:34;;;;;;;2.00;0.63;;;;;;;14.74;52.54;100455.91;12208444;19;20413;-80
2022/08/07 05:02:26;;;;;;;1.27;0.85;;;;;;;14.74;53.01;100455.06;12186173;19;20719;-82
2022/08/07 05:06:41;;;;;;;1.48;0.90;;;;;;;14.72;52.77;100462.81;12206629;19;20014;-79
2022/08/07 05:10:56;;;;;;;1.08;0.70;;;;;;;14.74;53.00;100464.22;12185729;19;20030;-80
2022/08/07 05:15:15;;;;;;;2.13;0.82;;;;;;;14.81;52.78;100458.47;12206163;19;20014;-82
2022/08/07 05:19:37;;;;;;;1.50;0.50;;;;;;;14.88;52.66;100463.81;12186787;19;20466;-79
2022/08/07 05:23:52;;;;;;;4.38;0.80;;;;;;;14.90;52.74;100465.25;12206222;19;20007;-81
2022/08/07 05:27:56;;;;;;;0.93;0.50;;;;;;;15.00;52.72;100475.59;12209382;19;20014;-81
2022/08/07 05:32:23;;;;;;;1.35;0.70;;;;;;;15.05;52.71;100472.88;12182729;19;20018;-81
2022/08/07 05:36:29;;;;;;;1.80;0.93;;;;;;;15.12;52.41;100484.59;12207123;19;20014;-81
2022/08/07 05:40:38;;;;;;;1.40;0.80;;;;;;;15.16;52.43;100482.94;12185364;19;20500;-81
2022/08/07 05:44:53;;;;;;;1.73;0.73;;;;;;;15.25;52.50;100486.06;12204774;19;20209;-82
2022/08/07 05:49:18;;;;;;;0.68;0.52;;;;;;;15.34;52.29;100492.81;12182185;19;20018;-80
2022/08/07 05:53:24;;;;;;;1.15;0.70;;;;;;;15.43;51.93;100493.16;12205273;19;20503;-81
2022/08/07 05:57:48;;;;;;;2.07;0.70;;;;;;;15.50;51.61;100497.41;12222582;19;20014;-81
2022/08/07 06:01:53;;;;;;;2.05;0.88;;;;;;;15.63;51.58;100495.28;12185097;19;20046;-80
2022/08/07 06:05:57;;;;;;;1.50;0.73;;;;;;;15.72;51.39;100497.31;12218606;19;20677;-81
2022/08/07 06:10:01;;;;;;;1.05;0.47;;;;;;;15.85;51.39;100504.34;12196959;19;20531;-82
2022/08/07 06:14:07;;;;;;;0.63;0.63;;;;;;;15.93;51.42;100503.00;12220879;19;20034;-81
2022/08/07 06:18:23;;;;;;;2.42;0.93;;;;;;;16.06;50.84;100507.25;12225158;19;20015;-83
2022/08/07 06:22:30;;;;;;;1.08;0.68;;;;;;;16.22;50.55;100506.22;12196074;19;20003;-82
2022/08/07 06:26:52;;;;;;;0.80;0.60;;;;;;;16.39;50.32;100508.81;12216203;19;20006;-80
2022/08/07 06:30:56;;;;;;;1.17;0.70;;;;;;;16.54;50.19;100517.22;12215221;19;20014;-80
2022/08/07 06:34:59;;;;;;;2.92;0.70;;;;;;;16.67;49.74;100513.09;12195096;19;20078;-81
2022/08/07 06:39:01;;;;;;;1.45;0.60;;;;;;;16.83;49.83;100514.81;12231976;19;20010;-84
2022/08/07 06:43:25;;;;;;;1.80;0.82;;;;;;;16.96;49.49;100518.22;12200484;19;20014;-82
2022/08/07 06:47:41;;;;;;;0.80;0.60;;;;;;;17.10;49.53;100513.75;12219871;19;20014;-82
2022/08/07 06:52:02;;;;;;;5.97;0.82;;;;;;;17.36;48.48;100499.88;12213073;19;20043;-80
2022/08/07 06:56:13;;;;;;;2.50;0.90;;;;;;;17.58;48.11;100507.94;12206794;19;20011;-78
2022/08/07 07:00:20;;;;;;;1.65;0.77;;;;;;;17.80;48.09;100496.53;12215639;19;20021;-79
2022/08/07 07:04:25;;;;;;;0.95;0.63;;;;;;;18.02;47.60;100502.59;12192193;19;20037;-79
2022/08/07 07:08:34;;;;;;;2.20;0.70;;;;;;;18.27;47.31;100498.94;12218377;19;20014;-79
2022/08/07 07:12:47;;;;;;;3.10;0.90;;;;;;;18.53;46.83;100496.88;12217796;19;20011;-78
2022/08/07 07:16:58;;;;;;;0.68;0.68;;;;;;;18.79;45.97;100502.34;12196071;19;20018;-80
2022/08/07 07:21:20;;;;;;;4.72;0.82;;;;;;;19.01;45.38;100507.53;12215759;19;20064;-79
2022/08/07 07:25:42;;;;;;;1.38;0.75;;;;;;;19.25;45.06;100507.66;12197411;19;20014;-83
2022/08/07 07:30:05;;;;;;;1.48;0.63;;;;;;;19.43;44.97;100503.31;12215068;19;20014;-81
2022/08/07 07:34:17;;;;;;;3.03;0.60;;;;;;;19.79;44.01;100496.28;12191179;19;20006;-78
2022/08/07 07:38:24;;;;;;;0.85;0.68;;;;;;;20.03;43.02;100496.31;12214747;19;20007;-79
2022/08/07 07:42:26;;;;;;;0.80;0.57;;;;;;;20.20;43.11;100501.47;12209237;19;20047;-79
2022/08/07 07:46:35;;;;;;;2.13;0.70;;;;;;;20.42;41.71;100494.47;12191346;19;20394;-79
2022/08/07 07:50:58;;;;;;;2.13;0.57;;;;;;;20.63;41.83;100493.09;12215645;19;20059;-79
2022/08/07 07:55:04;;;;;;;0.65;0.60;;;;;;;20.82;41.65;100484.75;12182120;19;20113;-78
2022/08/07 07:59:08;;;;;;;1.98;0.68;;;;;;;21.07;41.05;100486.31;12212081;19;20027;-78
2022/08/07 08:03:14;;;;;;;3.05;0.90;;;;;;;21.39;40.60;100487.53;12209549;19;20018;-79
2022/08/07 08:07:38;;;;;;;1.15;0.70;;;;;;;21.44;39.54;100478.19;12190391;19;20010;-78
2022/08/07 08:11:52;;;;;;;5.03;0.82;;;;;;;21.71;39.91;100477.44;12211437;19;20021;-79
2022/08/07 08:16:05;;;;;;;2.42;0.60;;;;;;;22.10;39.85;100482.59;12191655;19;20013;-79
2022/08/07 08:20:14;;;;;;;1.65;0.73;;;;;;;22.30;39.04;100473.78;12210189;19;20086;-79
2022/08/07 08:28:59;;;;;;;1.58;1.10;;;;;;;22.65;39.19;100471.34;12188061;19;20023;-79
2022/08/07 08:33:05;;;;;;;3.90;1.35;;;;;;;22.87;38.89;100464.13;12215203;19;20070;-79
2022/08/07 08:37:12;;;;;;;2.03;1.02;;;;;;;23.11;38.43;100469.50;12193151;19;20368;-78
2022/08/07 08:41:55;;;;;;;2.25;1.25;;;;;;;23.37;38.11;100452.81;12210315;19;20471;-78
2022/08/07 08:46:17;;;;;;;2.47;1.05;;;;;;;23.67;38.31;100460.47;12206216;19;20019;-78
2022/08/07 08:50:31;;;;;;;2.40;1.15;;;;;;;23.99;37.60;100461.31;12211037;19;20138;-78
2022/08/07 08:54:48;;;;;;;1.83;1.10;;;;;;;24.13;37.28;100449.16;12211227;19;20031;-78
2022/08/07 08:59:06;;;;;;;1.50;1.00;;;;;;;24.39;36.94;100455.69;12185726;19;20006;-78
2022/08/07 09:03:47;;;;;;;0.88;0.70;;;;;;;24.47;37.12;100454.06;12207978;19;20002;-79
2022/08/07 09:08:13;;;;;;;3.10;1.15;;;;;;;24.70;36.50;100441.53;12189424;19;20030;-78
2022/08/07 09:13:05;;;;;;;2.00;1.08;;;;;;;24.92;36.08;100439.72;12210244;19;20015;-77
2022/08/07 09:17:38;;;;;;;2.55;1.02;;;;;;;25.04;35.02;100444.69;12187651;19;20022;-78
2022/08/07 09:22:12;;;;;;;3.03;1.00;;;;;;;25.38;34.89;100444.69;12199227;19;20403;-78
2022/08/07 09:26:48;;;;;;;2.00;0.80;;;;;;;25.41;34.24;100441.22;12210114;19;20014;-78
2022/08/07 09:31:09;;;;;;;2.88;1.20;;;;;;;25.62;33.74;100429.22;12206980;19;20018;-78
2022/08/07 09:35:50;;;;;;;2.60;0.90;;;;;;;25.79;33.09;100423.53;12183034;19;20011;-77
2022/08/07 09:40:08;;;;;;;3.65;1.20;;;;;;;25.89;33.21;100428.00;12194064;19;20497;-79
2022/08/07 09:44:34;;;;;;;1.98;1.08;;;;;;;25.96;33.90;100419.81;12218045;19;20037;-79
2022/08/07 09:49:18;;;;;;;2.60;0.95;;;;;;;26.13;32.35;100416.09;12218404;19;20651;-79
2022/08/07 09:53:43;;;;;;;1.27;1.00;;;;;;;26.52;32.45;100402.75;12115194;19;2004741;-78
2022/08/07 09:58:28;;;;;;;1.45;0.90;;;;;;;26.81;32.22;100399.88;12217042;19;20011;-78
2022/08/07 10:02:48;;;;;;;1.67;1.00;;;;;;;26.90;30.60;100384.84;12112936;19;2004625;-78
2022/08/07 10:07:12;;;;;;;1.90;1.00;;;;;;;26.99;30.93;100388.44;12210652;19;20018;-78
2022/08/07 10:11:50;;;;;;;1.10;0.80;;;;;;;27.21;30.56;100385.22;12192768;19;20479;-78
2022/08/07 10:16:10;;;;;;;2.17;1.02;;;;;;;27.36;30.20;100382.94;12192016;19;20488;-78
2022/08/07 10:20:41;;;;;;;2.38;0.90;;;;;;;27.50;29.37;100377.78;12212440;19;20026;-79
2022/08/07 10:25:12;;;;;;;4.22;0.93;;;;;;;27.48;28.51;100374.47;12214299;19;20006;-80
2022/08/07 10:29:23;;;;;;;1.27;0.90;;;;;;;27.53;28.84;100362.94;12227209;19;20011;-78
2022/08/07 10:34:04;;;;;;;1.73;0.85;;;;;;;27.66;28.76;100369.44;12236901;19;20030;-79
2022/08/07 10:38:40;;;;;;;3.10;1.38;;;;;;;27.85;28.24;100368.91;12193445;19;20720;-78
2022/08/07 10:43:08;;;;;;;6.60;0.90;;;;;;;28.21;28.34;100362.41;12217771;19;20014;-79
2022/08/07 10:47:38;;;;;;;1.75;0.80;;;;;;;28.48;27.69;100360.03;12193463;19;20093;-81
2022/08/07 10:52:08;;;;;;;2.67;0.73;;;;;;;28.41;26.92;100346.47;12207335;19;20011;-80
2022/08/07 10:56:35;;;;;;;1.27;0.77;;;;;;;28.37;27.31;100362.50;12195663;19;20028;-78
2022/08/07 11:00:48;;;;;;;2.78;0.90;;;;;;;28.14;27.54;100359.34;12219429;19;20006;-80
2022/08/07 11:05:05;;;;;;;2.63;0.93;;;;;;;28.11;27.64;100334.53;12199383;19;20015;-80
2022/08/07 11:09:31;;;;;;;1.50;0.80;;;;;;;28.40;27.48;100327.75;12219395;19;20019;-80
2022/08/07 11:14:14;;;;;;;1.30;0.80;;;;;;;28.69;27.87;100331.50;12200628;19;20015;-79
2022/08/07 11:18:47;;;;;;;3.47;0.95;;;;;;;28.90;26.89;100325.63;12216422;19;20754;-80
2022/08/07 11:23:07;;;;;;;3.25;1.10;;;;;;;29.16;25.86;100317.50;12195831;19;19999;-80
2022/08/07 11:27:41;;;;;;;1.15;0.80;;;;;;;29.14;24.98;100322.69;12217128;19;20623;-80
2022/08/07 11:32:12;;;;;;;4.07;0.70;;;;;;;29.33;25.65;100312.66;12195500;19;20082;-81
2022/08/07 11:36:31;;;;;;;1.45;0.70;;;;;;;29.40;25.18;100304.34;12219880;19;20031;-81
2022/08/07 11:40:34;;;;;;;1.08;0.70;;;;;;;29.43;25.33;100290.22;12197305;19;20014;-82
2022/08/07 11:45:00;;;;;;;2.58;0.80;;;;;;;29.55;25.36;100297.00;12218462;19;20615;-81
2022/08/07 11:49:19;;;;;;;2.58;0.60;;;;;;;29.87;25.35;100287.31;12196859;19;20078;-80
2022/08/07 11:54:10;;;;;;;1.75;0.60;;;;;;;30.84;23.15;100287.47;12218682;19;20021;-79
2022/08/07 11:58:22;;;;;;;1.00;0.70;;;;;;;31.46;22.79;100280.91;12196320;19;20106;-80
2022/08/07 12:03:11;;;;;;;3.72;0.70;;;;;;;31.71;22.72;100273.63;12214279;19;20010;-81
2022/08/07 12:07:57;;;;;;;1.38;0.80;;;;;;;32.22;22.40;100278.09;12186955;19;20010;-82
2022/08/07 12:12:11;;;;;;;1.60;0.85;;;;;;;31.91;22.58;100268.66;12213275;19;20018;-81
2022/08/07 12:16:22;;;;;;;2.17;0.73;;;;;;;32.48;22.47;100262.16;12191503;19;20086;-82
2022/08/07 12:20:45;;;;;;;3.45;0.80;;;;;;;33.02;21.89;100272.19;12212615;19;20026;-81
2022/08/07 12:30:03;;;;;;;1.08;0.70;;;;;;;34.05;20.26;100254.34;12114622;19;2006228;-81
2022/08/07 12:34:05;;;;;;;2.20;0.93;;;;;;;34.09;20.23;100246.59;12195038;19;20036;-81
2022/08/07 12:38:13;;;;;;;1.40;0.90;;;;;;;34.67;20.09;100237.09;12217284;19;20010;-81
2022/08/07 12:42:36;;;;;;;1.88;1.00;;;;;;;35.18;19.32;100244.59;12211288;19;20398;-81
2022/08/07 12:47:01;;;;;;;6.47;1.08;;;;;;;35.27;18.77;100229.88;12192980;19;20007;-83
2022/08/07 12:51:32;;;;;;;1.13;0.80;;;;;;;35.66;18.28;100224.16;12207547;19;20010;-81
2022/08/07 12:56:06;;;;;;;4.03;0.80;;;;;;;36.50;18.08;100221.50;12189221;19;20038;-82
2022/08/07 13:00:10;;;;;;;0.80;0.63;;;;;;;36.73;17.53;100232.47;12208033;19;20007;-81
2022/08/07 13:04:52;;;;;;;2.80;0.90;;;;;;;36.98;16.96;100228.66;12187163;19;20571;-83
2022/08/07 13:09:33;;;;;;;0.85;0.70;;;;;;;37.06;16.78;100218.75;12208582;19;20017;-81
2022/08/07 13:14:06;;;;;;;1.23;0.82;;;;;;;37.21;16.29;100207.97;12189128;19;20009;-81
2022/08/07 13:18:45;;;;;;;1.33;0.90;;;;;;;37.05;16.18;100205.66;12214210;19;20037;-82
2022/08/07 13:23:05;;;;;;;2.10;0.80;;;;;;;37.59;15.93;100205.22;12201708;19;20017;-81
2022/08/07 13:27:36;;;;;;;1.00;0.90;;;;;;;37.90;15.50;100209.03;12215271;19;20011;-81
2022/08/07 13:32:08;;;;;;;;;;;;;;;38.45;15.90;100187.03;12191836;19;20010;-81
2022/08/07 13:36:43;;;;;;;1.55;0.95;;;;;;;39.26;14.74;100186.25;12216749;19;19915;-80
2022/08/07 13:40:56;;;;;;;0.95;0.75;;;;;;;39.41;14.47;100191.34;12192219;19;20011;-81
2022/08/07 13:45:03;;;;;;;1.23;0.70;;;;;;;40.06;14.68;100172.84;12215330;19;20029;-81
2022/08/07 13:49:34;;;;;;;2.33;0.77;;;;;;;40.62;13.97;100170.06;12196864;19;19996;-82
2022/08/07 13:54:06;;;;;;;1.10;0.90;;;;;;;40.66;14.38;100173.66;12217442;19;20456;-81
2022/08/07 14:02:33;;;;;;;1.40;0.70;;;;;;;40.43;14.02;100151.47;12221877;19;20365;-81
2022/08/07 14:06:52;;;;;;;1.95;1.00;;;;;;;40.91;13.75;100152.84;12221378;19;20017;-82
2022/08/07 14:10:57;;;;;;;1.30;0.60;;;;;;;40.74;13.70;100160.69;12197126;19;20034;-85
2022/08/07 14:15:10;;;;;;;1.35;0.80;;;;;;;40.50;13.52;100147.59;12229117;19;20100;-84
2022/08/07 14:19:21;;;;;;;0.73;0.70;;;;;;;41.04;13.06;100143.47;12218677;19;20015;-83
2022/08/07 14:23:57;;;;;;;0.70;0.70;;;;;;;40.85;13.30;100142.28;12228840;19;20015;-83
2022/08/07 14:28:06;;;;;;;1.33;0.77;;;;;;;39.48;13.73;100127.00;12239821;19;20060;-82
2022/08/07 14:32:16;;;;;;;1.17;0.70;;;;;;;39.35;14.09;100141.22;12214319;19;20007;-81
2022/08/07 14:36:22;;;;;;;0.77;0.60;;;;;;;37.54;15.20;100134.66;12230625;19;20010;-81
2022/08/07 14:40:28;;;;;;;1.30;0.70;;;;;;;34.89;16.82;100124.28;12205655;19;20020;-81
2022/08/07 14:44:38;;;;;;;0.85;0.75;;;;;;;33.44;18.08;100125.31;12232593;19;20003;-81
2022/08/07 14:48:44;;;;;;;1.23;0.60;;;;;;;32.88;18.28;100124.44;12233309;19;20019;-80
2022/08/07 14:52:49;;;;;;;3.08;0.80;;;;;;;32.61;18.54;100124.56;12201602;19;20031;-80
2022/08/07 14:56:53;;;;;;;3.80;1.00;;;;;;;32.34;18.83;100111.63;12224054;19;20013;-81
2022/08/07 15:00:58;;;;;;;3.10;1.00;;;;;;;31.84;19.29;100111.00;12220250;19;20020;-82
2022/08/07 15:05:01;;;;;;;1.67;0.70;;;;;;;31.02;20.15;100122.75;12199415;19;20020;-80
2022/08/07 15:09:07;;;;;;;1.77;0.80;;;;;;;30.60;20.62;100114.25;12219544;19;20018;-82
2022/08/07 15:13:30;;;;;;;1.95;1.13;;;;;;;30.35;20.66;100110.97;12197557;19;20021;-80
2022/08/07 15:17:42;;;;;;;0.90;0.73;;;;;;;29.98;21.33;100119.91;12218908;19;20010;-79
2022/08/07 15:22:04;;;;;;;3.63;0.52;;;;;;;29.69;21.46;100112.81;12219963;19;20011;-81
2022/08/07 15:26:35;;;;;;;3.47;0.75;;;;;;;29.36;21.95;100107.53;12195227;19;20031;-83
2022/08/07 15:30:37;;;;;;;0.95;0.80;;;;;;;29.04;21.95;100102.75;12219034;19;20006;-79
2022/08/07 15:35:02;;;;;;;2.05;0.70;;;;;;;28.84;22.55;100103.84;12196804;19;20003;-80
2022/08/07 15:39:07;;;;;;;3.47;0.70;;;;;;;28.83;22.36;100105.84;12218720;19;20010;-83
2022/08/07 15:43:11;;;;;;;2.08;0.90;;;;;;;29.11;21.68;100109.78;12197868;19;20014;-79
2022/08/07 15:47:38;;;;;;;1.97;0.60;;;;;;;29.75;21.27;100095.09;12220966;19;20032;-79
2022/08/07 15:52:01;;;;;;;0.82;0.57;;;;;;;30.36;20.53;100084.97;12218030;19;20467;-80
2022/08/07 15:56:08;;;;;;;1.45;0.73;;;;;;;30.22;21.38;100086.72;12194371;19;20051;-79
2022/08/07 16:00:12;;;;;;;2.53;0.80;;;;;;;30.03;21.50;100084.72;12216139;19;20349;-79
2022/08/07 16:04:35;;;;;;;;;;;;;;;29.55;21.62;100081.22;12191899;19;20095;-79
2022/08/07 16:08:43;;;;;;;1.48;0.80;;;;;;;29.23;21.97;100078.47;12216254;19;20002;-78
2022/08/07 16:13:04;;;;;;;2.00;0.85;;;;;;;28.98;22.12;100063.66;12209673;19;20018;-79
2022/08/07 16:17:31;;;;;;;1.05;0.77;;;;;;;28.78;22.46;100065.59;12196250;19;20010;-79
2022/08/07 16:22:03;;;;;;;1.88;0.65;;;;;;;28.71;22.91;100068.28;12220964;19;20070;-78
2022/08/07 16:26:24;;;;;;;2.38;0.55;;;;;;;28.81;22.23;100065.69;12195493;19;20011;-78
2022/08/07 16:30:37;;;;;;;2.00;0.65;;;;;;;28.57;22.44;100072.38;12213041;19;20023;-77
2022/08/07 16:34:49;;;;;;;2.58;0.90;;;;;;;28.39;22.93;100065.38;12191011;19;20010;-79
2022/08/07 16:39:15;;;;;;;2.75;0.75;;;;;;;28.31;22.97;100063.53;12210708;19;20071;-78
2022/08/07 16:44:00;;;;;;;1.65;0.63;;;;;;;28.25;22.89;100076.31;12191983;19;20018;-79
2022/08/07 16:48:11;;;;;;;1.05;0.60;;;;;;;28.00;23.34;100069.97;12210957;19;20377;-78
2022/08/07 16:52:40;;;;;;;1.75;0.70;;;;;;;27.95;23.79;100074.69;12191342;19;20027;-78
2022/08/07 16:57:31;;;;;;;1.20;0.75;;;;;;;27.87;23.56;100077.66;12212682;19;20437;-79
2022/08/07 17:02:07;;;;;;;1.17;0.60;;;;;;;27.79;23.68;100073.00;12189319;19;20014;-78
2022/08/07 17:06:47;;;;;;;2.30;0.80;;;;;;;27.69;23.84;100069.47;12215972;19;20010;-80
2022/08/07 17:11:15;;;;;;;0.93;0.65;;;;;;;27.61;24.61;100069.63;12186303;19;20020;-78
2022/08/07 17:15:42;;;;;;;1.30;0.90;;;;;;;27.49;24.46;100071.28;12208743;19;20007;-79
2022/08/07 17:19:57;;;;;;;2.08;0.63;;;;;;;27.39;24.21;100070.94;12191021;19;20010;-79
2022/08/07 17:24:19;;;;;;;1.13;0.70;;;;;;;27.46;24.70;100074.03;12210208;19;20406;-78
2022/08/07 17:28:36;;;;;;;2.92;0.60;;;;;;;27.59;24.68;100078.44;12188557;19;20006;-79
2022/08/07 17:33:01;;;;;;;1.42;0.90;;;;;;;27.47;24.26;100084.16;12207741;19;20692;-78
2022/08/07 17:37:14;;;;;;;1.70;0.68;;;;;;;27.29;24.90;100079.94;12208685;19;20015;-78
2022/08/07 17:41:41;;;;;;;;;;;;;;;27.13;25.08;100086.31;12187618;19;20034;-80
2022/08/07 17:46:12;;;;;;;3.30;0.70;;;;;;;27.06;25.12;100086.06;12211405;19;19911;-79
2022/08/07 17:50:22;;;;;;;1.67;0.90;;;;;;;26.97;25.11;100083.34;12189163;19;20098;-79
2022/08/07 17:55:00;;;;;;;2.10;0.80;;;;;;;26.87;25.26;100086.66;12210137;19;20219;-79
2022/08/07 17:59:30;;;;;;;1.70;1.10;;;;;;;26.84;25.02;100087.34;12195860;19;20368;-80
2022/08/07 18:03:58;;;;;;;1.30;0.80;;;;;;;26.81;25.42;100086.06;12219289;19;20338;-81
2022/08/07 18:08:42;;;;;;;2.33;0.88;;;;;;;26.91;25.22;100093.25;12228057;19;20007;-80
2022/08/07 18:13:19;;;;;;;1.88;1.20;;;;;;;26.81;25.19;100090.91;12236965;19;20010;-81
2022/08/07 18:17:30;;;;;;;3.58;0.80;;;;;;;26.80;25.29;100098.56;12201598;19;20345;-79
2022/08/07 18:22:11;;;;;;;1.73;0.98;;;;;;;26.54;25.58;100096.03;12223782;19;20132;-82
2022/08/07 18:26:23;;;;;;;1.27;0.82;;;;;;;26.28;26.12;100101.94;12194431;19;20018;-81
2022/08/07 18:30:41;;;;;;;1.50;0.77;;;;;;;26.13;26.05;100113.91;12217237;19;20014;-82
2022/08/07 18:35:09;;;;;;;2.55;0.70;;;;;;;25.95;26.37;100110.41;12199588;19;20036;-81
2022/08/07 18:39:34;;;;;;;2.40;0.80;;;;;;;25.73;26.45;100122.88;12217176;19;20042;-80
2022/08/07 18:44:22;;;;;;;1.67;0.90;;;;;;;25.45;26.87;100125.38;12196513;19;20382;-81
2022/08/07 18:48:45;;;;;;;1.40;0.90;;;;;;;25.12;27.72;100126.06;12218759;19;20059;-81
2022/08/07 18:53:14;;;;;;;4.35;0.85;;;;;;;24.78;28.30;100129.88;12188844;19;20043;-81
2022/08/07 18:57:40;;;;;;;0.82;0.65;;;;;;;24.48;28.57;100132.63;12212722;19;20385;-81
2022/08/07 19:02:02;;;;;;;3.72;0.85;;;;;;;24.23;28.80;100139.09;12190685;19;20773;-81
2022/08/07 19:06:44;;;;;;;1.40;0.80;;;;;;;23.94;29.15;100142.59;12212837;19;20042;-80
2022/08/07 19:10:58;;;;;;;2.80;0.93;;;;;;;23.71;29.73;100141.91;12191460;19;20010;-80
2022/08/07 19:15:25;;;;;;;4.22;1.00;;;;;;;23.52;29.64;100157.09;12212515;19;20347;-80
2022/08/07 19:20:11;;;;;;;2.75;0.90;;;;;;;23.27;30.53;100152.25;12193482;19;20015;-81
2022/08/07 19:24:42;;;;;;;1.30;0.77;;;;;;;23.05;30.70;100162.41;12213966;19;20477;-83
2022/08/07 19:28:53;;;;;;;2.80;1.02;;;;;;;22.86;30.84;100173.88;12195890;19;20011;-81
2022/08/07 19:33:15;;;;;;;3.33;0.90;;;;;;;22.65;31.37;100182.03;12212674;19;20465;-80
2022/08/07 19:37:20;;;;;;;1.90;0.82;;;;;;;22.48;31.79;100181.94;12192065;19;20021;-81
2022/08/07 19:41:31;;;;;;;1.33;1.00;;;;;;;22.32;31.99;100177.88;12210879;19;20010;-80
2022/08/07 19:45:50;;;;;;;1.77;1.10;;;;;;;22.15;32.31;100190.59;12210566;19;20375;-80
2022/08/07 19:50:10;;;;;;;1.50;0.93;;;;;;;21.99;32.76;100203.34;12189764;19;20010;-80
2022/08/07 19:54:40;;;;;;;1.85;1.08;;;;;;;21.82;32.80;100196.41;12212723;19;20014;-80
2022/08/07 19:58:59;;;;;;;2.22;0.88;;;;;;;21.72;33.11;100204.25;12195566;19;20723;-80